sensor_id;sensor_type;location;lat;lon;timestamp;P1;durP1;ratioP1;P2;durP2;ratioP2
70416;SDS011;57839;51.332;12.410;2023-02-01T00:02:23;12.10;;;5.50;;
70416;SDS011;57839;51.332;12.410;2023-02-01T00:04:49;10.57;;;5.53;;
70416;SDS011;57839;51.332;12.410;2023-02-01T00:07:14;12.15;;;5.70;;
70416;SDS011;57839;51.332;12.410;2023-02-01T00:09:39;14.13;;;5.35;;
70416;SDS011;57839;51.332;12.410;2023-02-01T00:12:05;8.85;;;4.50;;
70416;SDS011;57839;51.332;12.410;2023-02-01T00:14:30;12.98;;;4.63;;
70416;SDS011;57839;51.332;12.410;2023-02-01T00:17:03;10.00;;;4.90;;
70416;SDS011;57839;51.332;12.410;2023-02-01T00:19:30;11.52;;;4.82;;
70416;SDS011;57839;51.332;12.410;2023-02-01T00:21:55;15.50;;;4.43;;
70416;SDS011;57839;51.332;12.410;2023-02-01T00:24:21;14.65;;;5.22;;
70416;SDS011;57839;51.332;12.410;2023-02-01T00:26:47;10.00;;;4.68;;
70416;SDS011;57839;51.332;12.410;2023-02-01T00:29:16;12.10;;;5.32;;
70416;SDS011;57839;51.332;12.410;2023-02-01T00:31:43;11.52;;;4.82;;
70416;SDS011;57839;51.332;12.410;2023-02-01T00:34:12;10.95;;;4.40;;
70416;SDS011;57839;51.332;12.410;2023-02-01T00:36:40;12.80;;;4.60;;
70416;SDS011;57839;51.332;12.410;2023-02-01T00:39:05;10.88;;;3.97;;
70416;SDS011;57839;51.332;12.410;2023-02-01T00:41:31;13.90;;;4.43;;
70416;SDS011;57839;51.332;12.410;2023-02-01T00:43:57;11.93;;;4.63;;
70416;SDS011;57839;51.332;12.410;2023-02-01T00:46:22;10.40;;;4.13;;
70416;SDS011;57839;51.332;12.410;2023-02-01T00:48:48;6.90;;;3.78;;
70416;SDS011;57839;51.332;12.410;2023-02-01T00:51:15;9.55;;;3.45;;
70416;SDS011;57839;51.332;12.410;2023-02-01T00:53:41;10.88;;;3.30;;
70416;SDS011;57839;51.332;12.410;2023-02-01T00:56:07;15.10;;;3.90;;
70416;SDS011;57839;51.332;12.410;2023-02-01T00:58:33;13.75;;;3.65;;
70416;SDS011;57839;51.332;12.410;2023-02-01T01:03:33;8.93;;;3.30;;
70416;SDS011;57839;51.332;12.410;2023-02-01T01:06:03;9.35;;;3.90;;
70416;SDS011;57839;51.332;12.410;2023-02-01T01:08:30;16.83;;;4.55;;
70416;SDS011;57839;51.332;12.410;2023-02-01T01:10:56;8.77;;;3.67;;
70416;SDS011;57839;51.332;12.410;2023-02-01T01:13:21;14.32;;;4.00;;
70416;SDS011;57839;51.332;12.410;2023-02-01T01:15:47;9.68;;;4.00;;
70416;SDS011;57839;51.332;12.410;2023-02-01T01:18:13;13.20;;;4.60;;
70416;SDS011;57839;51.332;12.410;2023-02-01T01:20:39;9.50;;;4.10;;
70416;SDS011;57839;51.332;12.410;2023-02-01T01:23:06;11.68;;;3.80;;
70416;SDS011;57839;51.332;12.410;2023-02-01T01:25:36;8.95;;;3.70;;
70416;SDS011;57839;51.332;12.410;2023-02-01T01:28:03;10.07;;;4.30;;
70416;SDS011;57839;51.332;12.410;2023-02-01T01:30:29;13.30;;;4.18;;
70416;SDS011;57839;51.332;12.410;2023-02-01T01:32:54;9.38;;;4.53;;
70416;SDS011;57839;51.332;12.410;2023-02-01T01:35:20;10.10;;;3.88;;
70416;SDS011;57839;51.332;12.410;2023-02-01T01:37:45;13.32;;;4.55;;
70416;SDS011;57839;51.332;12.410;2023-02-01T01:40:11;17.52;;;4.38;;
70416;SDS011;57839;51.332;12.410;2023-02-01T01:42:37;13.05;;;4.40;;
70416;SDS011;57839;51.332;12.410;2023-02-01T01:47:42;17.33;;;5.32;;
70416;SDS011;57839;51.332;12.410;2023-02-01T01:50:11;13.07;;;4.32;;
70416;SDS011;57839;51.332;12.410;2023-02-01T01:52:41;12.40;;;4.13;;
70416;SDS011;57839;51.332;12.410;2023-02-01T01:55:08;12.65;;;4.22;;
70416;SDS011;57839;51.332;12.410;2023-02-01T01:57:38;14.27;;;4.40;;
70416;SDS011;57839;51.332;12.410;2023-02-01T02:00:10;17.92;;;4.50;;
70416;SDS011;57839;51.332;12.410;2023-02-01T02:02:38;13.20;;;4.40;;
70416;SDS011;57839;51.332;12.410;2023-02-01T02:05:06;13.57;;;4.40;;
70416;SDS011;57839;51.332;12.410;2023-02-01T02:07:34;12.80;;;4.15;;
70416;SDS011;57839;51.332;12.410;2023-02-01T02:10:03;13.25;;;3.92;;
70416;SDS011;57839;51.332;12.410;2023-02-01T02:12:31;10.60;;;4.20;;
70416;SDS011;57839;51.332;12.410;2023-02-01T02:14:57;11.25;;;4.10;;
70416;SDS011;57839;51.332;12.410;2023-02-01T02:17:36;14.32;;;4.75;;
70416;SDS011;57839;51.332;12.410;2023-02-01T02:23:29;12.32;;;4.32;;
70416;SDS011;57839;51.332;12.410;2023-02-01T02:26:09;13.18;;;4.40;;
70416;SDS011;57839;51.332;12.410;2023-02-01T02:33:52;10.45;;;4.65;;
70416;SDS011;57839;51.332;12.410;2023-02-01T02:44:45;14.82;;;4.70;;
70416;SDS011;57839;51.332;12.410;2023-02-01T02:47:47;11.07;;;4.40;;
70416;SDS011;57839;51.332;12.410;2023-02-01T02:50:35;9.15;;;3.90;;
70416;SDS011;57839;51.332;12.410;2023-02-01T02:53:30;11.32;;;4.40;;
70416;SDS011;57839;51.332;12.410;2023-02-01T02:56:18;16.67;;;4.30;;
70416;SDS011;57839;51.332;12.410;2023-02-01T02:59:04;11.35;;;4.30;;
70416;SDS011;57839;51.332;12.410;2023-02-01T03:01:50;11.15;;;4.32;;
70416;SDS011;57839;51.332;12.410;2023-02-01T03:04:35;15.88;;;4.55;;
70416;SDS011;57839;51.332;12.410;2023-02-01T03:07:14;12.43;;;3.90;;
70416;SDS011;57839;51.332;12.410;2023-02-01T03:10:02;10.35;;;3.70;;
70416;SDS011;57839;51.332;12.410;2023-02-01T03:12:30;13.13;;;3.67;;
70416;SDS011;57839;51.332;12.410;2023-02-01T03:15:17;13.45;;;3.75;;
70416;SDS011;57839;51.332;12.410;2023-02-01T03:17:44;9.48;;;3.88;;
70416;SDS011;57839;51.332;12.410;2023-02-01T03:20:10;13.13;;;4.15;;
70416;SDS011;57839;51.332;12.410;2023-02-01T03:22:38;9.40;;;3.65;;
70416;SDS011;57839;51.332;12.410;2023-02-01T03:25:06;13.93;;;3.80;;
70416;SDS011;57839;51.332;12.410;2023-02-01T03:28:09;14.20;;;3.95;;
70416;SDS011;57839;51.332;12.410;2023-02-01T03:30:36;10.52;;;4.10;;
70416;SDS011;57839;51.332;12.410;2023-02-01T03:33:04;13.63;;;4.10;;
70416;SDS011;57839;51.332;12.410;2023-02-01T03:38:38;16.13;;;4.00;;
70416;SDS011;57839;51.332;12.410;2023-02-01T03:44:08;19.50;;;4.27;;
70416;SDS011;57839;51.332;12.410;2023-02-01T03:46:37;9.68;;;4.38;;
70416;SDS011;57839;51.332;12.410;2023-02-01T03:49:06;12.25;;;4.55;;
70416;SDS011;57839;51.332;12.410;2023-02-01T03:51:35;15.65;;;4.03;;
70416;SDS011;57839;51.332;12.410;2023-02-01T03:54:03;8.13;;;3.33;;
70416;SDS011;57839;51.332;12.410;2023-02-01T03:56:32;10.63;;;3.78;;
70416;SDS011;57839;51.332;12.410;2023-02-01T03:59:01;11.73;;;3.50;;
70416;SDS011;57839;51.332;12.410;2023-02-01T04:01:28;11.05;;;4.13;;
70416;SDS011;57839;51.332;12.410;2023-02-01T04:03:55;12.70;;;4.20;;
70416;SDS011;57839;51.332;12.410;2023-02-01T04:06:22;19.98;;;4.43;;
70416;SDS011;57839;51.332;12.410;2023-02-01T04:08:48;13.57;;;3.80;;
70416;SDS011;57839;51.332;12.410;2023-02-01T04:11:14;22.25;;;9.18;;
70416;SDS011;57839;51.332;12.410;2023-02-01T04:13:39;12.02;;;3.85;;
70416;SDS011;57839;51.332;12.410;2023-02-01T04:16:05;15.32;;;4.47;;
70416;SDS011;57839;51.332;12.410;2023-02-01T04:18:31;17.38;;;4.25;;
70416;SDS011;57839;51.332;12.410;2023-02-01T04:20:56;16.27;;;4.35;;
70416;SDS011;57839;51.332;12.410;2023-02-01T04:23:22;14.68;;;4.03;;
70416;SDS011;57839;51.332;12.410;2023-02-01T04:25:47;15.20;;;4.35;;
70416;SDS011;57839;51.332;12.410;2023-02-01T04:28:13;12.43;;;3.65;;
70416;SDS011;57839;51.332;12.410;2023-02-01T04:30:38;11.73;;;4.10;;
70416;SDS011;57839;51.332;12.410;2023-02-01T04:33:04;14.18;;;4.93;;
70416;SDS011;57839;51.332;12.410;2023-02-01T04:35:33;10.27;;;3.60;;
70416;SDS011;57839;51.332;12.410;2023-02-01T04:37:59;17.45;;;4.47;;
70416;SDS011;57839;51.332;12.410;2023-02-01T04:40:24;13.93;;;3.85;;
70416;SDS011;57839;51.332;12.410;2023-02-01T04:42:50;14.63;;;5.53;;
70416;SDS011;57839;51.332;12.410;2023-02-01T04:45:15;20.42;;;4.63;;
70416;SDS011;57839;51.332;12.410;2023-02-01T04:47:41;14.45;;;4.32;;
70416;SDS011;57839;51.332;12.410;2023-02-01T04:50:07;14.05;;;4.18;;
70416;SDS011;57839;51.332;12.410;2023-02-01T04:52:35;15.63;;;3.85;;
70416;SDS011;57839;51.332;12.410;2023-02-01T04:55:01;13.90;;;3.60;;
70416;SDS011;57839;51.332;12.410;2023-02-01T04:57:28;16.05;;;3.83;;
70416;SDS011;57839;51.332;12.410;2023-02-01T04:59:53;12.00;;;3.75;;
70416;SDS011;57839;51.332;12.410;2023-02-01T05:02:19;18.38;;;4.18;;
70416;SDS011;57839;51.332;12.410;2023-02-01T05:04:44;17.13;;;3.92;;
70416;SDS011;57839;51.332;12.410;2023-02-01T05:07:10;15.02;;;4.75;;
70416;SDS011;57839;51.332;12.410;2023-02-01T05:09:35;18.05;;;4.20;;
70416;SDS011;57839;51.332;12.410;2023-02-01T05:12:01;15.50;;;4.43;;
70416;SDS011;57839;51.332;12.410;2023-02-01T05:14:45;11.18;;;3.72;;
70416;SDS011;57839;51.332;12.410;2023-02-01T05:17:10;17.73;;;4.25;;
70416;SDS011;57839;51.332;12.410;2023-02-01T05:19:36;11.90;;;3.67;;
70416;SDS011;57839;51.332;12.410;2023-02-01T05:22:02;18.17;;;4.70;;
70416;SDS011;57839;51.332;12.410;2023-02-01T05:24:27;13.80;;;4.00;;
70416;SDS011;57839;51.332;12.410;2023-02-01T05:26:53;16.55;;;4.60;;
70416;SDS011;57839;51.332;12.410;2023-02-01T05:29:18;16.00;;;4.30;;
70416;SDS011;57839;51.332;12.410;2023-02-01T05:31:45;14.32;;;3.85;;
70416;SDS011;57839;51.332;12.410;2023-02-01T05:34:11;14.50;;;4.18;;
70416;SDS011;57839;51.332;12.410;2023-02-01T05:36:36;13.13;;;4.20;;
70416;SDS011;57839;51.332;12.410;2023-02-01T05:39:02;12.98;;;4.47;;
70416;SDS011;57839;51.332;12.410;2023-02-01T05:41:28;13.55;;;4.25;;
70416;SDS011;57839;51.332;12.410;2023-02-01T05:43:53;14.32;;;4.50;;
70416;SDS011;57839;51.332;12.410;2023-02-01T05:46:19;12.27;;;3.95;;
70416;SDS011;57839;51.332;12.410;2023-02-01T05:48:44;9.82;;;4.53;;
70416;SDS011;57839;51.332;12.410;2023-02-01T05:51:10;14.77;;;4.70;;
70416;SDS011;57839;51.332;12.410;2023-02-01T05:53:36;13.75;;;4.40;;
70416;SDS011;57839;51.332;12.410;2023-02-01T05:56:02;16.50;;;4.43;;
70416;SDS011;57839;51.332;12.410;2023-02-01T05:58:27;12.68;;;4.05;;
70416;SDS011;57839;51.332;12.410;2023-02-01T06:00:53;13.75;;;4.13;;
70416;SDS011;57839;51.332;12.410;2023-02-01T06:03:19;13.23;;;4.25;;
70416;SDS011;57839;51.332;12.410;2023-02-01T06:05:44;11.45;;;3.80;;
70416;SDS011;57839;51.332;12.410;2023-02-01T06:08:11;12.57;;;3.97;;
70416;SDS011;57839;51.332;12.410;2023-02-01T06:10:37;10.48;;;3.72;;
70416;SDS011;57839;51.332;12.410;2023-02-01T06:13:03;9.98;;;4.07;;
70416;SDS011;57839;51.332;12.410;2023-02-01T06:15:29;15.43;;;4.60;;
70416;SDS011;57839;51.332;12.410;2023-02-01T06:17:55;9.70;;;3.80;;
70416;SDS011;57839;51.332;12.410;2023-02-01T06:20:20;11.43;;;3.90;;
70416;SDS011;57839;51.332;12.410;2023-02-01T06:22:46;11.50;;;4.00;;
70416;SDS011;57839;51.332;12.410;2023-02-01T06:25:12;11.88;;;3.60;;
70416;SDS011;57839;51.332;12.410;2023-02-01T06:27:38;11.48;;;3.53;;
70416;SDS011;57839;51.332;12.410;2023-02-01T06:30:04;13.70;;;3.97;;
70416;SDS011;57839;51.332;12.410;2023-02-01T06:32:30;12.65;;;4.47;;
70416;SDS011;57839;51.332;12.410;2023-02-01T06:34:56;14.25;;;4.10;;
70416;SDS011;57839;51.332;12.410;2023-02-01T06:37:22;14.32;;;5.63;;
70416;SDS011;57839;51.332;12.410;2023-02-01T06:39:50;13.50;;;4.35;;
70416;SDS011;57839;51.332;12.410;2023-02-01T06:42:16;10.75;;;4.32;;
70416;SDS011;57839;51.332;12.410;2023-02-01T06:44:41;12.50;;;4.28;;
70416;SDS011;57839;51.332;12.410;2023-02-01T06:47:07;16.42;;;4.43;;
70416;SDS011;57839;51.332;12.410;2023-02-01T06:49:33;14.50;;;5.07;;
70416;SDS011;57839;51.332;12.410;2023-02-01T06:51:58;20.65;;;4.95;;
70416;SDS011;57839;51.332;12.410;2023-02-01T06:54:27;11.10;;;3.72;;
70416;SDS011;57839;51.332;12.410;2023-02-01T06:56:52;15.02;;;3.75;;
70416;SDS011;57839;51.332;12.410;2023-02-01T06:59:18;12.93;;;4.18;;
70416;SDS011;57839;51.332;12.410;2023-02-01T07:01:43;11.30;;;4.43;;
70416;SDS011;57839;51.332;12.410;2023-02-01T07:04:12;15.05;;;4.93;;
70416;SDS011;57839;51.332;12.410;2023-02-01T07:06:40;10.32;;;3.85;;
70416;SDS011;57839;51.332;12.410;2023-02-01T07:09:06;12.13;;;4.55;;
70416;SDS011;57839;51.332;12.410;2023-02-01T07:11:32;9.88;;;3.90;;
70416;SDS011;57839;51.332;12.410;2023-02-01T07:13:58;15.77;;;4.75;;
70416;SDS011;57839;51.332;12.410;2023-02-01T07:16:24;13.60;;;4.60;;
70416;SDS011;57839;51.332;12.410;2023-02-01T07:18:50;15.55;;;5.13;;
70416;SDS011;57839;51.332;12.410;2023-02-01T07:21:17;11.23;;;4.32;;
70416;SDS011;57839;51.332;12.410;2023-02-01T07:23:43;16.38;;;4.50;;
70416;SDS011;57839;51.332;12.410;2023-02-01T07:26:09;11.07;;;3.85;;
70416;SDS011;57839;51.332;12.410;2023-02-01T07:28:38;19.20;;;5.22;;
70416;SDS011;57839;51.332;12.410;2023-02-01T07:31:04;13.68;;;4.15;;
70416;SDS011;57839;51.332;12.410;2023-02-01T07:33:31;14.63;;;4.78;;
70416;SDS011;57839;51.332;12.410;2023-02-01T07:35:57;17.30;;;5.35;;
70416;SDS011;57839;51.332;12.410;2023-02-01T07:38:23;18.63;;;4.70;;
70416;SDS011;57839;51.332;12.410;2023-02-01T07:40:49;14.60;;;3.88;;
70416;SDS011;57839;51.332;12.410;2023-02-01T07:43:15;12.27;;;4.07;;
70416;SDS011;57839;51.332;12.410;2023-02-01T07:45:41;13.05;;;4.38;;
70416;SDS011;57839;51.332;12.410;2023-02-01T07:48:06;20.45;;;4.65;;
70416;SDS011;57839;51.332;12.410;2023-02-01T07:50:32;9.80;;;4.15;;
70416;SDS011;57839;51.332;12.410;2023-02-01T07:53:00;9.98;;;4.40;;
70416;SDS011;57839;51.332;12.410;2023-02-01T07:55:26;14.57;;;4.25;;
70416;SDS011;57839;51.332;12.410;2023-02-01T07:57:52;11.40;;;4.22;;
70416;SDS011;57839;51.332;12.410;2023-02-01T08:00:18;10.88;;;3.92;;
70416;SDS011;57839;51.332;12.410;2023-02-01T08:03:03;11.18;;;4.95;;
70416;SDS011;57839;51.332;12.410;2023-02-01T08:05:29;19.75;;;4.75;;
70416;SDS011;57839;51.332;12.410;2023-02-01T08:07:55;13.05;;;4.50;;
70416;SDS011;57839;51.332;12.410;2023-02-01T08:10:20;11.75;;;3.88;;
70416;SDS011;57839;51.332;12.410;2023-02-01T08:12:46;15.52;;;4.20;;
70416;SDS011;57839;51.332;12.410;2023-02-01T08:15:15;14.30;;;4.50;;
70416;SDS011;57839;51.332;12.410;2023-02-01T08:17:48;13.95;;;4.20;;
70416;SDS011;57839;51.332;12.410;2023-02-01T08:20:17;13.63;;;4.40;;
70416;SDS011;57839;51.332;12.410;2023-02-01T08:22:43;15.00;;;4.50;;
70416;SDS011;57839;51.332;12.410;2023-02-01T08:25:09;11.68;;;4.03;;
70416;SDS011;57839;51.332;12.410;2023-02-01T08:27:35;13.52;;;4.63;;
70416;SDS011;57839;51.332;12.410;2023-02-01T08:30:02;13.90;;;4.50;;
70416;SDS011;57839;51.332;12.410;2023-02-01T08:32:29;10.13;;;4.03;;
70416;SDS011;57839;51.332;12.410;2023-02-01T08:34:54;9.43;;;4.20;;
70416;SDS011;57839;51.332;12.410;2023-02-01T08:37:20;12.88;;;4.10;;
70416;SDS011;57839;51.332;12.410;2023-02-01T08:39:45;12.35;;;4.43;;
70416;SDS011;57839;51.332;12.410;2023-02-01T08:42:12;12.90;;;4.50;;
70416;SDS011;57839;51.332;12.410;2023-02-01T08:44:56;13.45;;;4.10;;
70416;SDS011;57839;51.332;12.410;2023-02-01T08:47:22;10.70;;;4.05;;
70416;SDS011;57839;51.332;12.410;2023-02-01T08:49:48;11.15;;;4.22;;
70416;SDS011;57839;51.332;12.410;2023-02-01T08:52:13;13.23;;;4.22;;
70416;SDS011;57839;51.332;12.410;2023-02-01T08:54:39;7.93;;;4.18;;
70416;SDS011;57839;51.332;12.410;2023-02-01T08:57:06;12.90;;;4.43;;
70416;SDS011;57839;51.332;12.410;2023-02-01T08:59:32;13.60;;;4.97;;
70416;SDS011;57839;51.332;12.410;2023-02-01T09:01:57;9.73;;;5.00;;
70416;SDS011;57839;51.332;12.410;2023-02-01T09:04:23;11.25;;;4.78;;
70416;SDS011;57839;51.332;12.410;2023-02-01T09:06:49;17.92;;;5.20;;
70416;SDS011;57839;51.332;12.410;2023-02-01T09:09:14;19.45;;;5.57;;
70416;SDS011;57839;51.332;12.410;2023-02-01T09:11:40;15.98;;;5.68;;
70416;SDS011;57839;51.332;12.410;2023-02-01T09:14:06;13.57;;;5.82;;
70416;SDS011;57839;51.332;12.410;2023-02-01T09:16:31;12.90;;;5.78;;
70416;SDS011;57839;51.332;12.410;2023-02-01T09:18:57;17.73;;;6.10;;
70416;SDS011;57839;51.332;12.410;2023-02-01T09:21:23;17.25;;;5.40;;
70416;SDS011;57839;51.332;12.410;2023-02-01T09:23:50;13.05;;;5.50;;
70416;SDS011;57839;51.332;12.410;2023-02-01T09:26:16;18.40;;;6.63;;
70416;SDS011;57839;51.332;12.410;2023-02-01T09:28:42;18.98;;;6.13;;
70416;SDS011;57839;51.332;12.410;2023-02-01T09:31:07;15.48;;;5.47;;
70416;SDS011;57839;51.332;12.410;2023-02-01T09:33:33;18.20;;;5.93;;
70416;SDS011;57839;51.332;12.410;2023-02-01T09:35:59;15.70;;;6.10;;
70416;SDS011;57839;51.332;12.410;2023-02-01T09:38:26;14.50;;;5.90;;
70416;SDS011;57839;51.332;12.410;2023-02-01T09:40:52;13.93;;;5.40;;
70416;SDS011;57839;51.332;12.410;2023-02-01T09:49:04;20.40;;;6.13;;
70416;SDS011;57839;51.332;12.410;2023-02-01T09:51:40;16.63;;;5.13;;
70416;SDS011;57839;51.332;12.410;2023-02-01T09:54:13;22.00;;;5.20;;
70416;SDS011;57839;51.332;12.410;2023-02-01T09:56:42;12.85;;;4.82;;
70416;SDS011;57839;51.332;12.410;2023-02-01T10:01:58;11.88;;;4.60;;
70416;SDS011;57839;51.332;12.410;2023-02-01T10:04:25;14.63;;;5.05;;
70416;SDS011;57839;51.332;12.410;2023-02-01T10:15:04;18.52;;;5.35;;
70416;SDS011;57839;51.332;12.410;2023-02-01T10:18:20;20.10;;;5.20;;
70416;SDS011;57839;51.332;12.410;2023-02-01T10:26:24;12.73;;;4.90;;
70416;SDS011;57839;51.332;12.410;2023-02-01T10:29:01;12.57;;;4.80;;
70416;SDS011;57839;51.332;12.410;2023-02-01T10:31:28;11.50;;;4.80;;
70416;SDS011;57839;51.332;12.410;2023-02-01T10:33:57;9.55;;;4.45;;
70416;SDS011;57839;51.332;12.410;2023-02-01T10:36:31;17.83;;;5.18;;
70416;SDS011;57839;51.332;12.410;2023-02-01T10:39:02;12.07;;;5.13;;
70416;SDS011;57839;51.332;12.410;2023-02-01T10:41:31;13.82;;;5.40;;
70416;SDS011;57839;51.332;12.410;2023-02-01T10:43:58;11.15;;;4.95;;
70416;SDS011;57839;51.332;12.410;2023-02-01T10:46:25;14.35;;;5.25;;
70416;SDS011;57839;51.332;12.410;2023-02-01T10:48:52;14.68;;;4.60;;
70416;SDS011;57839;51.332;12.410;2023-02-01T10:51:21;12.98;;;4.50;;
70416;SDS011;57839;51.332;12.410;2023-02-01T10:53:54;12.35;;;4.10;;
70416;SDS011;57839;51.332;12.410;2023-02-01T10:56:23;8.55;;;3.58;;
70416;SDS011;57839;51.332;12.410;2023-02-01T10:58:50;9.90;;;2.92;;
70416;SDS011;57839;51.332;12.410;2023-02-01T11:01:36;8.75;;;2.83;;
70416;SDS011;57839;51.332;12.410;2023-02-01T11:04:04;10.13;;;3.17;;
70416;SDS011;57839;51.332;12.410;2023-02-01T11:06:33;11.07;;;2.90;;
70416;SDS011;57839;51.332;12.410;2023-02-01T11:09:09;11.23;;;3.45;;
70416;SDS011;57839;51.332;12.410;2023-02-01T11:14:15;10.75;;;3.30;;
70416;SDS011;57839;51.332;12.410;2023-02-01T11:16:46;11.70;;;2.83;;
70416;SDS011;57839;51.332;12.410;2023-02-01T11:19:14;7.72;;;2.85;;
70416;SDS011;57839;51.332;12.410;2023-02-01T11:21:41;7.82;;;2.92;;
70416;SDS011;57839;51.332;12.410;2023-02-01T11:24:11;12.52;;;3.08;;
70416;SDS011;57839;51.332;12.410;2023-02-01T11:26:54;5.68;;;2.80;;
70416;SDS011;57839;51.332;12.410;2023-02-01T11:29:23;9.40;;;2.85;;
70416;SDS011;57839;51.332;12.410;2023-02-01T11:31:58;11.90;;;3.05;;
70416;SDS011;57839;51.332;12.410;2023-02-01T11:34:25;13.73;;;3.08;;
70416;SDS011;57839;51.332;12.410;2023-02-01T11:36:53;10.85;;;2.70;;
70416;SDS011;57839;51.332;12.410;2023-02-01T11:39:25;10.98;;;2.60;;
70416;SDS011;57839;51.332;12.410;2023-02-01T11:44:32;9.98;;;2.92;;
70416;SDS011;57839;51.332;12.410;2023-02-01T11:47:18;6.20;;;2.97;;
70416;SDS011;57839;51.332;12.410;2023-02-01T11:49:56;9.07;;;3.80;;
70416;SDS011;57839;51.332;12.410;2023-02-01T12:00:20;7.80;;;3.15;;
70416;SDS011;57839;51.332;12.410;2023-02-01T12:11:50;11.32;;;3.58;;
70416;SDS011;57839;51.332;12.410;2023-02-01T12:14:22;11.85;;;3.90;;
70416;SDS011;57839;51.332;12.410;2023-02-01T12:22:33;11.85;;;3.33;;
70416;SDS011;57839;51.332;12.410;2023-02-01T12:25:23;14.27;;;4.07;;
70416;SDS011;57839;51.332;12.410;2023-02-01T12:33:49;9.63;;;3.28;;
70416;SDS011;57839;51.332;12.410;2023-02-01T12:41:30;11.38;;;3.60;;
70416;SDS011;57839;51.332;12.410;2023-02-01T12:46:54;8.68;;;2.90;;
70416;SDS011;57839;51.332;12.410;2023-02-01T12:49:42;12.13;;;3.42;;
70416;SDS011;57839;51.332;12.410;2023-02-01T12:52:16;10.73;;;3.58;;
70416;SDS011;57839;51.332;12.410;2023-02-01T12:54:52;10.43;;;2.50;;
70416;SDS011;57839;51.332;12.410;2023-02-01T12:57:30;17.15;;;3.40;;
70416;SDS011;57839;51.332;12.410;2023-02-01T13:00:05;9.20;;;2.55;;
70416;SDS011;57839;51.332;12.410;2023-02-01T13:07:45;14.00;;;2.63;;
70416;SDS011;57839;51.332;12.410;2023-02-01T13:12:44;8.25;;;2.90;;
70416;SDS011;57839;51.332;12.410;2023-02-01T13:15:23;10.65;;;2.80;;
70416;SDS011;57839;51.332;12.410;2023-02-01T13:17:54;10.15;;;3.53;;
70416;SDS011;57839;51.332;12.410;2023-02-01T13:20:31;8.70;;;3.17;;
70416;SDS011;57839;51.332;12.410;2023-02-01T13:25:46;8.45;;;3.45;;
70416;SDS011;57839;51.332;12.410;2023-02-01T13:42:30;10.32;;;3.03;;
70416;SDS011;57839;51.332;12.410;2023-02-01T13:45:01;6.78;;;2.70;;
70416;SDS011;57839;51.332;12.410;2023-02-01T13:47:39;12.52;;;2.83;;
70416;SDS011;57839;51.332;12.410;2023-02-01T13:55:38;6.90;;;2.83;;
70416;SDS011;57839;51.332;12.410;2023-02-01T14:00:42;9.73;;;3.58;;
70416;SDS011;57839;51.332;12.410;2023-02-01T14:03:10;13.30;;;3.88;;
70416;SDS011;57839;51.332;12.410;2023-02-01T14:23:46;10.35;;;3.70;;
70416;SDS011;57839;51.332;12.410;2023-02-01T14:26:17;10.45;;;3.83;;
70416;SDS011;57839;51.332;12.410;2023-02-01T14:28:46;9.13;;;3.60;;
70416;SDS011;57839;51.332;12.410;2023-02-01T14:31:33;12.15;;;3.55;;
70416;SDS011;57839;51.332;12.410;2023-02-01T14:34:09;11.95;;;4.25;;
70416;SDS011;57839;51.332;12.410;2023-02-01T14:36:40;8.25;;;3.50;;
70416;SDS011;57839;51.332;12.410;2023-02-01T14:39:20;11.55;;;4.10;;
70416;SDS011;57839;51.332;12.410;2023-02-01T14:41:52;12.88;;;4.05;;
70416;SDS011;57839;51.332;12.410;2023-02-01T14:44:26;8.43;;;4.00;;
70416;SDS011;57839;51.332;12.410;2023-02-01T14:47:04;12.07;;;4.95;;
70416;SDS011;57839;51.332;12.410;2023-02-01T14:52:49;8.25;;;3.50;;
70416;SDS011;57839;51.332;12.410;2023-02-01T14:55:24;14.52;;;3.95;;
70416;SDS011;57839;51.332;12.410;2023-02-01T14:57:52;13.85;;;4.13;;
70416;SDS011;57839;51.332;12.410;2023-02-01T15:00:21;9.90;;;3.88;;
70416;SDS011;57839;51.332;12.410;2023-02-01T15:02:49;9.32;;;3.50;;
70416;SDS011;57839;51.332;12.410;2023-02-01T15:05:26;6.40;;;3.50;;
70416;SDS011;57839;51.332;12.410;2023-02-01T15:07:57;10.13;;;3.70;;
70416;SDS011;57839;51.332;12.410;2023-02-01T15:10:31;14.00;;;3.92;;
70416;SDS011;57839;51.332;12.410;2023-02-01T15:12:57;12.63;;;3.90;;
70416;SDS011;57839;51.332;12.410;2023-02-01T15:15:24;12.43;;;3.85;;
70416;SDS011;57839;51.332;12.410;2023-02-01T15:17:56;8.15;;;3.80;;
70416;SDS011;57839;51.332;12.410;2023-02-01T15:20:28;10.50;;;3.83;;
70416;SDS011;57839;51.332;12.410;2023-02-01T15:22:57;10.05;;;3.28;;
70416;SDS011;57839;51.332;12.410;2023-02-01T15:25:26;9.20;;;3.70;;
70416;SDS011;57839;51.332;12.410;2023-02-01T15:27:54;9.73;;;3.72;;
70416;SDS011;57839;51.332;12.410;2023-02-01T15:30:30;10.30;;;3.63;;
70416;SDS011;57839;51.332;12.410;2023-02-01T15:33:07;10.48;;;3.45;;
70416;SDS011;57839;51.332;12.410;2023-02-01T15:35:35;8.52;;;3.67;;
70416;SDS011;57839;51.332;12.410;2023-02-01T15:43:33;9.13;;;4.00;;
70416;SDS011;57839;51.332;12.410;2023-02-01T15:46:14;9.77;;;3.65;;
70416;SDS011;57839;51.332;12.410;2023-02-01T15:48:46;8.95;;;3.90;;
70416;SDS011;57839;51.332;12.410;2023-02-01T15:51:20;8.15;;;3.63;;
70416;SDS011;57839;51.332;12.410;2023-02-01T15:54:00;7.25;;;3.63;;
70416;SDS011;57839;51.332;12.410;2023-02-01T15:56:28;9.23;;;4.03;;
70416;SDS011;57839;51.332;12.410;2023-02-01T15:58:59;8.55;;;3.70;;
70416;SDS011;57839;51.332;12.410;2023-02-01T16:01:26;8.05;;;4.03;;
70416;SDS011;57839;51.332;12.410;2023-02-01T16:04:12;8.18;;;3.50;;
70416;SDS011;57839;51.332;12.410;2023-02-01T16:06:55;10.35;;;3.90;;
70416;SDS011;57839;51.332;12.410;2023-02-01T16:09:23;18.92;;;9.13;;
70416;SDS011;57839;51.332;12.410;2023-02-01T16:11:57;5.07;;;2.13;;
70416;SDS011;57839;51.332;12.410;2023-02-01T16:14:24;3.80;;;1.38;;
70416;SDS011;57839;51.332;12.410;2023-02-01T16:16:51;2.30;;;1.30;;
70416;SDS011;57839;51.332;12.410;2023-02-01T16:19:18;3.03;;;1.10;;
70416;SDS011;57839;51.332;12.410;2023-02-01T16:21:44;1.35;;;1.13;;
70416;SDS011;57839;51.332;12.410;2023-02-01T16:24:10;1.13;;;0.90;;
70416;SDS011;57839;51.332;12.410;2023-02-01T16:26:36;1.00;;;1.00;;
70416;SDS011;57839;51.332;12.410;2023-02-01T16:29:03;3.00;;;1.10;;
70416;SDS011;57839;51.332;12.410;2023-02-01T16:31:32;1.20;;;0.90;;
70416;SDS011;57839;51.332;12.410;2023-02-01T16:34:02;1.92;;;0.90;;
70416;SDS011;57839;51.332;12.410;2023-02-01T16:36:28;0.82;;;0.80;;
70416;SDS011;57839;51.332;12.410;2023-02-01T16:38:54;0.80;;;0.80;;
70416;SDS011;57839;51.332;12.410;2023-02-01T16:41:21;1.05;;;0.90;;
70416;SDS011;57839;51.332;12.410;2023-02-01T16:43:51;9.30;;;4.90;;
70416;SDS011;57839;51.332;12.410;2023-02-01T16:46:19;1.40;;;1.23;;
70416;SDS011;57839;51.332;12.410;2023-02-01T16:48:57;2.35;;;1.10;;
70416;SDS011;57839;51.332;12.410;2023-02-01T16:51:24;2.70;;;1.00;;
70416;SDS011;57839;51.332;12.410;2023-02-01T16:53:52;3.53;;;1.10;;
70416;SDS011;57839;51.332;12.410;2023-02-01T16:56:19;2.80;;;1.20;;
70416;SDS011;57839;51.332;12.410;2023-02-01T16:58:46;2.58;;;1.30;;
70416;SDS011;57839;51.332;12.410;2023-02-01T17:01:15;1.67;;;1.00;;
70416;SDS011;57839;51.332;12.410;2023-02-01T17:03:43;1.73;;;1.00;;
70416;SDS011;57839;51.332;12.410;2023-02-01T17:06:11;3.05;;;1.17;;
70416;SDS011;57839;51.332;12.410;2023-02-01T17:08:42;2.25;;;1.13;;
70416;SDS011;57839;51.332;12.410;2023-02-01T17:11:12;1.58;;;1.00;;